This is the latest recevied weather packets stored in our database for station/object OK2CME-6. If no packets are shown the sender has not sent any weather packets the latest 10 day(s).
| Time | Temp. | Humidity | Pressure | Rain* | Wind** | Luminosity | Snow |
|---|---|---|---|---|---|---|---|
| 1778035545 | 11.11° C | 81% | 1010.9 hPa | 0 mm | - | 0 W/m² | - |
| 1778034345 | 11.11° C | 80% | 1010.7 hPa | 0 mm | - | 0 W/m² | - |
| 1778033145 | 11.67° C | 78% | 1010.9 hPa | 0 mm | - | 0 W/m² | - |
| 1778031945 | 12.22° C | 77% | 1010.7 hPa | 0 mm | - | 0 W/m² | - |
| 1778030745 | 12.22° C | 77% | 1010.7 hPa | 0 mm | - | 0 W/m² | - |
| 1778029545 | 12.22° C | 75% | 1010.5 hPa | 0 mm | - | 0 W/m² | - |
| 1778028345 | 12.78° C | 74% | 1010.6 hPa | 0 mm | - | 0 W/m² | - |
| 1778027145 | 12.78° C | 74% | 1010.6 hPa | 0 mm | - | 0 W/m² | - |
| 1778025945 | 12.78° C | 73% | 1010.1 hPa | 0 mm | - | 0 W/m² | - |
| 1778024745 | 13.33° C | 72% | 1010.3 hPa | 0 mm | - | 0 W/m² | - |
| 1778023545 | 13.33° C | 72% | 1010.3 hPa | 0 mm | - | 0 W/m² | - |
| 1778022345 | 13.33° C | 72% | 1010.5 hPa | 0 mm | - | 0 W/m² | - |
| 1778021145 | 13.33° C | 72% | 1010.2 hPa | 0 mm | - | 0 W/m² | - |
| 1778019945 | 13.33° C | 70% | 1010.5 hPa | 0 mm | - | 0 W/m² | - |
| 1778018745 | 13.89° C | 68% | 1010.2 hPa | 0 mm | - | 0 W/m² | - |
| 1778017545 | 13.89° C | 67% | 1010.6 hPa | 0 mm | - | 0 W/m² | - |
| 1778016345 | 13.89° C | 65% | 1010.5 hPa | 0 mm | - | 0 W/m² | - |
| 1778015145 | 14.44° C | 63% | 1010.5 hPa | 0 mm | - | 0 W/m² | - |
| 1778013945 | 14.44° C | 61% | 1010.5 hPa | 0 mm | - | 0 W/m² | - |
| 1778012745 | 15° C | 59% | 1010.8 hPa | 0 mm | - | 0 W/m² | - |
| 1778008124 | 17.22° C | 54% | 1010.9 hPa | 0 mm | - | 0 W/m² | - |
| 1777992120 | 23.33° C | 29% | 1011.6 hPa | 0 mm | - | 387 W/m² | - |
| 1777957995 | 12.22° C | 55% | 1014 hPa | 0 mm | - | 44 W/m² | - |
| 1777956795 | 12.22° C | 53% | 1013.9 hPa | 0 mm | - | 47 W/m² | - |
| 1777955595 | 12.22° C | 54% | 1014.2 hPa | 0 mm | - | 32 W/m² | - |
* Rain latest hour (hover to see other rain measurements)
** Current wind speed in m/s (hover to see current wind gust speed)